Twin Lake, Michigan
Current Conditions -  °F | °C
As of 11:34 AM on Sunday 21 Dec 2014 (Local Time) from KFFX Reporting Station
Overcast Overcast  
Wind Chill: 27°   Ceiling: 4600
Heat Index: 32°   Visibility: 7mi
Dew Point: 28°   Wind: 5mph
Humidity: 86%   Direction: 170°S
Pressure: 30.2"   Gusts: NA
Location:  43.36°N, 86.17°W
Report Text: KFFX 211634Z AUTO 17004KT 7SM OVC046 00/M02 A3020 RMK AO2 T00001021
Loading
Personal Weather Stations






























Interactive Weather Map New forecast layout! Learn more

10-Day Weather Forecast

Advertisements
Track Severe Weather on mobile